Zirfaea — PBZV — position and weather

sailwx.info

Track history (hours):
 
Tides and Currents Weather Stations Pressure Air Temp Water Temp Dewpoint Dewpoint Depression Visibility Wind Speed Wind Dir Waves Ship Positions

Oceanographic research ship Zirfaea (Netherlands)

Detailed information on ship capabilities available from University of Delaware's Ocean Information Center.

Last reported at 2017-Aug-17 01:29 UTC. Time now 2017-Aug-17 01:44 UTC.
Position N 52°30' E 003°41'.

Length 63 m; draft 3.9 m.

Type: Law enforcement. MMSI: 246096000.

Date/timePositionNaut miles runAvg speedWind from/ knotsBaromVisibWave heightAir tempDewpointWater temp
2017-Aug-17 01:29N 52°30' E 003°41'4 9.4
2017-Aug-17 01:00N 52°28' E 003°48'5 9.5
2017-Aug-17 00:31N 52°26' E 003°54'5 9.6
2017-Aug-17 00:01N 52°24' E 004°01'5 9.4
2017-Aug-16 23:31N 52°21' E 004°08'4 7.9
2017-Aug-16 23:00N 52°19' E 004°14'4 7.5
2017-Aug-16 22:30N 52°17' E 004°19'3 6.6
2017-Aug-16 22:00N 52°16' E 004°24'4 7.0
2017-Aug-16 21:30N 52°20' E 004°24'5 9.1
2017-Aug-16 21:01N 52°24' E 004°24'4 8.7
2017-Aug-16 20:31N 52°29' E 004°26'4 8.8
2017-Aug-16 20:01N 52°33' E 004°28'5 9.7
2017-Aug-16 19:30N 52°38' E 004°29'510.3
2017-Aug-16 19:00N 52°43' E 004°31'510.5
2017-Aug-16 18:31N 52°48' E 004°34'3 5.7
2017-Aug-16 18:00N 52°50' E 004°37'4 8.8
2017-Aug-16 17:30N 52°54' E 004°33'510.4
2017-Aug-16 17:01N 52°59' E 004°31'510.3
2017-Aug-16 16:30N 53°03' E 004°35'610.7
2017-Aug-16 15:57N 53°09' E 004°39'510.7
2017-Aug-16 15:30N 53°13' E 004°42'510.4
2017-Aug-16 15:00N 53°17' E 004°48'510.1
2017-Aug-16 14:31N 53°21' E 004°53'5 9.5
2017-Aug-16 14:01N 53°24' E 004°59'4 8.9
2017-Aug-16 13:31N 53°26' E 005°06'4 8.5
2017-Aug-16 13:00N 53°28' E 005°12'4 8.6
2017-Aug-16 12:30N 53°29' E 005°19'6 8.6
2017-Aug-16 11:47N 53°31' E 005°29'2 8.6
2017-Aug-16 11:30N 53°32' E 005°33'9 0.7
2017-Aug-15 22:48N 53°33' E 005°18'411.3
2017-Aug-15 22:26N 53°32' E 005°12'510.9
2017-Aug-15 22:01N 53°28' E 005°07'3 6.6
2017-Aug-15 21:31N 53°30' E 005°02'66 2.7
2017-Aug-14 20:39N 53°38' E 003°12'210.6
2017-Aug-14 20:30N 53°37' E 003°11'2111.0
2017-Aug-14 18:37N 53°16' E 003°11'211.2
2017-Aug-14 18:23N 53°14' E 003°11'511.1
2017-Aug-14 17:58N 53°09' E 003°12'510.7
2017-Aug-14 17:31N 53°04' E 003°12'510.3
2017-Aug-14 17:00N 52°59' E 003°12'5 9.9
2017-Aug-14 16:30N 52°54' E 003°14'5 9.9
2017-Aug-14 16:01N 52°50' E 003°17'20 9.1
2017-Aug-14 13:49N 52°32' E 003°33'3 9.0
2017-Aug-14 13:30N 52°30' E 003°35'5 9.1
2017-Aug-14 13:00N 52°26' E 003°40'5 9.2
2017-Aug-14 12:25N 52°22' E 003°46'4 9.6
2017-Aug-14 12:00N 52°21' E 003°53'5 9.3
2017-Aug-14 11:31N 52°18' E 003°58'5 9.5
2017-Aug-14 11:00N 52°15' E 004°04'5 9.5
2017-Aug-14 10:30N 52°12' E 004°10'3 6.2
2017-Aug-14 10:01N 52°09' E 004°12'3 6.4
2017-Aug-14 09:30N 52°07' E 004°15'1 1.7
2017-Aug-14 09:00N 52°06' E 004°16'0 0.0
2017-Aug-14 08:30N 52°06' E 004°16'0 0.0
2017-Aug-14 08:00N 52°06' E 004°16'0 0.0
2017-Aug-14 07:30N 52°06' E 004°16'0 0.0
2017-Aug-14 07:00N 52°06' E 004°16'0 0.0
2017-Aug-14 06:30N 52°06' E 004°16'0 0.0
2017-Aug-14 06:00N 52°06' E 004°16'0 0.0
2017-Aug-14 05:30N 52°06' E 004°16'0 0.0
2017-Aug-14 05:00N 52°06' E 004°16'0 0.0
2017-Aug-14 04:30N 52°06' E 004°16'0 0.0
2017-Aug-14 04:00N 52°06' E 004°16'0 0.0
2017-Aug-14 03:30N 52°06' E 004°16'0 0.0
2017-Aug-14 03:00N 52°06' E 004°16'0 0.0
2017-Aug-14 02:30N 52°06' E 004°16'0 0.0
2017-Aug-14 02:00N 52°06' E 004°16'0 0.0
2017-Aug-14 01:30N 52°06' E 004°16'0 0.0
2017-Aug-14 00:59N 52°06' E 004°16'0 0.0
2017-Aug-14 00:30N 52°06' E 004°16'0 0.0
2017-Aug-14 00:00N 52°06' E 004°16'0 0.0
2017-Aug-13 23:30N 52°06' E 004°16'0 0.0
2017-Aug-13 23:00N 52°06' E 004°16'0 0.0
2017-Aug-13 22:30N 52°06' E 004°16'0 0.0
2017-Aug-13 22:00N 52°06' E 004°16'0 0.0
2017-Aug-13 21:29N 52°06' E 004°16'0 0.0
2017-Aug-13 21:00N 52°06' E 004°16'0 0.0
2017-Aug-13 20:30N 52°06' E 004°16'0 0.0
2017-Aug-13 20:00N 52°06' E 004°16'0 0.0
2017-Aug-13 19:30N 52°06' E 004°16'0 0.0
2017-Aug-13 19:00N 52°06' E 004°16'0 0.0
2017-Aug-13 18:30N 52°06' E 004°16'0 0.0
2017-Aug-13 18:00N 52°06' E 004°16'0 0.0
2017-Aug-13 17:29N 52°06' E 004°16'0 0.0
2017-Aug-13 17:00N 52°06' E 004°16'0 0.0
2017-Aug-13 16:30N 52°06' E 004°16'0 0.0
2017-Aug-13 16:00N 52°06' E 004°16'0 0.0
2017-Aug-13 15:30N 52°06' E 004°16'0 0.0
2017-Aug-13 15:00N 52°06' E 004°16'0 0.0
2017-Aug-13 14:30N 52°06' E 004°16'0 0.0
2017-Aug-13 14:00N 52°06' E 004°16'0 0.0
2017-Aug-13 13:30N 52°06' E 004°16'0 0.0
2017-Aug-13 13:00N 52°06' E 004°16'0 0.0
2017-Aug-13 12:30N 52°06' E 004°16'0 0.0
2017-Aug-13 12:00N 52°06' E 004°16'0 0.0
2017-Aug-13 11:30N 52°06' E 004°16'0 0.0
2017-Aug-13 11:00N 52°06' E 004°16'0 0.0
2017-Aug-13 10:30N 52°06' E 004°16'0 0.0
2017-Aug-13 10:00N 52°06' E 004°16'0 0.0
2017-Aug-13 09:30N 52°06' E 004°16'0 0.0
2017-Aug-13 09:00N 52°06' E 004°16'0 0.0
2017-Aug-13 08:30N 52°06' E 004°16'0 0.0
2017-Aug-13 08:00N 52°06' E 004°16'0 0.0
2017-Aug-13 07:30N 52°06' E 004°16'0 0.0
2017-Aug-13 07:00N 52°06' E 004°16'0 0.0
2017-Aug-13 06:30N 52°06' E 004°16'0 0.0
2017-Aug-13 06:00N 52°06' E 004°16'0 0.0
2017-Aug-13 05:30N 52°06' E 004°16'0 0.0
2017-Aug-13 05:00N 52°06' E 004°16'0 0.0
2017-Aug-13 04:30N 52°06' E 004°16'0 0.0
2017-Aug-13 04:00N 52°06' E 004°16'0 0.0
2017-Aug-13 03:30N 52°06' E 004°16'0 0.0
2017-Aug-13 03:00N 52°06' E 004°16'0 0.0
2017-Aug-13 02:30N 52°06' E 004°16'0 0.0
2017-Aug-13 02:00N 52°06' E 004°16'0 0.0
2017-Aug-13 01:30N 52°06' E 004°16'0 0.0
2017-Aug-13 01:00N 52°06' E 004°16'0 0.0
2017-Aug-13 00:30N 52°06' E 004°16'0 0.0
2017-Aug-12 23:59N 52°06' E 004°16'0 0.0
2017-Aug-12 23:30N 52°06' E 004°16'0 0.0
2017-Aug-12 23:00N 52°06' E 004°16'0 0.0
2017-Aug-12 22:30N 52°06' E 004°16'0 0.0
2017-Aug-12 22:00N 52°06' E 004°16'0 0.0
2017-Aug-12 21:30N 52°06' E 004°16'0 0.0
2017-Aug-12 21:00N 52°06' E 004°16'0 0.0
2017-Aug-12 20:30N 52°06' E 004°16'0 0.0
2017-Aug-12 20:00N 52°06' E 004°16'0 0.0
2017-Aug-12 19:30N 52°06' E 004°16'0 0.0
2017-Aug-12 19:00N 52°06' E 004°16'0 0.0
2017-Aug-12 18:30N 52°06' E 004°16'0 0.0
2017-Aug-12 18:00N 52°06' E 004°16'0 0.0
2017-Aug-12 17:29N 52°06' E 004°16'0 0.0
2017-Aug-12 17:00N 52°06' E 004°16'0 0.0
2017-Aug-12 16:30N 52°06' E 004°16'0 0.0
2017-Aug-12 16:00N 52°06' E 004°16'0 0.0
2017-Aug-12 15:30N 52°06' E 004°16'0 0.0
2017-Aug-12 15:00N 52°06' E 004°16'0 0.0
2017-Aug-12 14:30N 52°06' E 004°16'0 0.0
2017-Aug-12 14:00N 52°06' E 004°16'0 0.0
2017-Aug-12 13:30N 52°06' E 004°16'0 0.0
2017-Aug-12 13:00N 52°06' E 004°16'0 0.0
2017-Aug-12 12:30N 52°06' E 004°16'0 0.0
2017-Aug-12 12:00N 52°06' E 004°16'0 0.0
2017-Aug-12 11:30N 52°06' E 004°16'0 0.0
2017-Aug-12 11:00N 52°06' E 004°16'0 0.0
2017-Aug-12 10:30N 52°06' E 004°16'0 0.0
2017-Aug-12 10:00N 52°06' E 004°16'0 0.0
2017-Aug-12 09:30N 52°06' E 004°16'0 0.0
2017-Aug-12 09:00N 52°06' E 004°16'0 0.0
2017-Aug-12 08:30N 52°06' E 004°16'0 0.0
2017-Aug-12 08:00N 52°06' E 004°16'0 0.0
2017-Aug-12 07:30N 52°06' E 004°16'0 0.0
2017-Aug-12 07:00N 52°06' E 004°16'0 0.0
2017-Aug-12 06:30N 52°06' E 004°16'0 0.0
2017-Aug-12 06:00N 52°06' E 004°16'0 0.0
2017-Aug-12 05:30N 52°06' E 004°16'0 0.0
2017-Aug-12 05:00N 52°06' E 004°16'0 0.0
2017-Aug-12 04:30N 52°06' E 004°16'0 0.0
2017-Aug-12 03:59N 52°06' E 004°16'0 0.0
2017-Aug-12 03:30N 52°06' E 004°16'0 0.0
2017-Aug-12 03:00N 52°06' E 004°16'0 0.0
2017-Aug-12 02:30N 52°06' E 004°16'0 0.0
2017-Aug-12 02:00N 52°06' E 004°16'0 0.0
2017-Aug-12 01:30N 52°06' E 004°16'0 0.0
2017-Aug-12 01:00N 52°06' E 004°16'0 0.0
2017-Aug-12 00:30N 52°06' E 004°16'0 0.0
2017-Aug-12 00:00N 52°06' E 004°16'0 0.0
2017-Aug-11 23:30N 52°06' E 004°16'0 0.0
2017-Aug-11 23:00N 52°06' E 004°16'0 0.0
2017-Aug-11 22:30N 52°06' E 004°16'0 0.0
2017-Aug-11 22:00N 52°06' E 004°16'0 0.0
2017-Aug-11 21:30N 52°06' E 004°16'0 0.0
2017-Aug-11 21:00N 52°06' E 004°16'0 0.0
2017-Aug-11 20:30N 52°06' E 004°16'0 0.0
2017-Aug-11 20:00N 52°06' E 004°16'0 0.0
2017-Aug-11 19:30N 52°06' E 004°16'0 0.0
2017-Aug-11 19:00N 52°06' E 004°16'0 0.0
2017-Aug-11 18:30N 52°06' E 004°16'0 0.0
2017-Aug-11 18:00N 52°06' E 004°16'0 0.0
2017-Aug-11 17:30N 52°06' E 004°16'0 0.0
2017-Aug-11 17:00N 52°06' E 004°16'0 0.0
2017-Aug-11 16:30N 52°06' E 004°16'0 0.0
2017-Aug-11 16:00N 52°06' E 004°16'0 0.0
2017-Aug-11 15:30N 52°06' E 004°16'0 0.0
2017-Aug-11 15:00N 52°06' E 004°16'0 0.0
2017-Aug-11 14:00N 52°06' E 004°16'0 0.0
2017-Aug-11 13:30N 52°06' E 004°16'0 0.0
2017-Aug-11 13:00N 52°06' E 004°16'0 0.0
2017-Aug-11 12:30N 52°06' E 004°16'0 0.0
2017-Aug-11 12:00N 52°06' E 004°16'0 0.0
2017-Aug-11 11:30N 52°06' E 004°16'0 0.0
2017-Aug-11 11:00N 52°06' E 004°16'0 0.0
2017-Aug-11 10:30N 52°06' E 004°16'0 0.0
2017-Aug-11 10:00N 52°06' E 004°16'0 0.0
2017-Aug-11 09:30N 52°06' E 004°16'0 0.0
2017-Aug-11 09:00N 52°06' E 004°16'0 0.0
2017-Aug-11 08:30N 52°06' E 004°16'0 0.0
2017-Aug-11 08:00N 52°06' E 004°16'0 0.0
2017-Aug-11 07:30N 52°06' E 004°16'0 0.0
2017-Aug-11 07:00N 52°06' E 004°16'0 0.0
2017-Aug-11 06:30N 52°06' E 004°16'0 0.0
2017-Aug-11 05:59N 52°06' E 004°16'0 0.0
2017-Aug-11 05:30N 52°06' E 004°16'0 0.0
2017-Aug-11 05:00N 52°06' E 004°16'0 0.0
2017-Aug-11 04:30N 52°06' E 004°16'0 0.0
2017-Aug-11 04:00N 52°06' E 004°16'0 0.0
2017-Aug-11 03:30N 52°06' E 004°16'0 0.0
2017-Aug-11 03:00N 52°06' E 004°16'0 0.0
2017-Aug-11 02:30N 52°06' E 004°16'0 0.0
2017-Aug-11 02:00N 52°06' E 004°16'0 0.0
2017-Aug-11 01:30N 52°06' E 004°16'0 0.0
2017-Aug-11 01:00N 52°06' E 004°16'0 0.0
2017-Aug-11 00:30N 52°06' E 004°16'0 0.0
2017-Aug-11 00:00N 52°06' E 004°16'0 0.0
2017-Aug-10 23:30N 52°06' E 004°16'0 0.0
2017-Aug-10 23:00N 52°06' E 004°16'0 0.0
2017-Aug-10 22:30N 52°06' E 004°16'0 0.0
2017-Aug-10 22:00N 52°06' E 004°16'0 0.0
2017-Aug-10 21:30N 52°06' E 004°16'0 0.0
2017-Aug-10 21:00N 52°06' E 004°16'0 0.0
2017-Aug-10 20:30N 52°06' E 004°16'0 0.0
2017-Aug-10 20:00N 52°06' E 004°16'0 0.0
2017-Aug-10 19:30N 52°06' E 004°16'0 0.0
2017-Aug-10 19:00N 52°06' E 004°16'0 0.0
2017-Aug-10 18:30N 52°06' E 004°16'0 0.0
2017-Aug-10 18:00N 52°06' E 004°16'0 0.0
2017-Aug-10 17:30N 52°06' E 004°16'0 0.0
2017-Aug-10 17:00N 52°06' E 004°16'0 0.0
2017-Aug-10 16:30N 52°06' E 004°16'0 0.0
2017-Aug-10 16:00N 52°06' E 004°16'0 0.0
2017-Aug-10 15:30N 52°06' E 004°16'0 0.0
2017-Aug-10 15:00N 52°06' E 004°16'0 0.0
2017-Aug-10 14:30N 52°06' E 004°16'0 0.0
2017-Aug-10 13:58N 52°06' E 004°16'0 0.0
2017-Aug-10 13:30N 52°06' E 004°16'0 0.0
2017-Aug-10 13:00N 52°06' E 004°16'0 0.0
2017-Aug-10 12:30N 52°06' E 004°16'0 0.0
2017-Aug-10 12:00N 52°06' E 004°16'0 0.0
2017-Aug-10 11:29N 52°06' E 004°16'0 0.0
2017-Aug-10 11:00N 52°06' E 004°16'0 0.0
2017-Aug-10 10:30N 52°06' E 004°16'0 0.0
2017-Aug-10 10:00N 52°06' E 004°16'0 0.0
2017-Aug-10 09:30N 52°06' E 004°16'0 0.0
2017-Aug-10 09:00N 52°06' E 004°16'0 0.0
2017-Aug-10 08:30N 52°06' E 004°16'0 0.0
2017-Aug-10 08:00N 52°06' E 004°16'0 0.0
2017-Aug-10 07:30N 52°06' E 004°16'0 0.0
2017-Aug-10 07:00N 52°06' E 004°16'0 0.0
2017-Aug-10 06:30N 52°06' E 004°16'0 0.0
2017-Aug-10 06:00N 52°06' E 004°16'0 0.0
2017-Aug-10 05:30N 52°06' E 004°16'0 0.0
2017-Aug-10 05:00N 52°06' E 004°16'0 0.0
2017-Aug-10 04:30N 52°06' E 004°16'0 0.0
2017-Aug-10 04:00N 52°06' E 004°16'0 0.0
2017-Aug-10 03:30N 52°06' E 004°16'0 0.0
2017-Aug-10 03:00N 52°06' E 004°16'0 0.0
2017-Aug-10 02:30N 52°06' E 004°16'0 0.0
2017-Aug-10 02:00N 52°06' E 004°16'0 0.0
2017-Aug-10 01:30N 52°06' E 004°16'0 0.0
2017-Aug-10 01:00N 52°06' E 004°16'0 0.0
2017-Aug-10 00:30N 52°06' E 004°16'0 0.0
2017-Aug-10 00:00N 52°06' E 004°16'0 0.0
2017-Aug-09 23:30N 52°06' E 004°16'0 0.0
2017-Aug-09 23:00N 52°06' E 004°16'0 0.0
2017-Aug-09 22:30N 52°06' E 004°16'0 0.0
2017-Aug-09 22:00N 52°06' E 004°16'0 0.0
2017-Aug-09 21:29N 52°06' E 004°16'0 0.0
2017-Aug-09 21:00N 52°06' E 004°16'0 0.0
2017-Aug-09 20:30N 52°06' E 004°16'0 0.0
2017-Aug-09 20:00N 52°06' E 004°16'0 0.0
2017-Aug-09 19:30N 52°06' E 004°16'0 0.0
2017-Aug-09 19:00N 52°06' E 004°16'0 0.0
2017-Aug-09 18:30N 52°06' E 004°16'0 0.0
2017-Aug-09 18:00N 52°06' E 004°16'0 0.0
2017-Aug-09 17:30N 52°06' E 004°16'0 0.0
2017-Aug-09 17:00N 52°06' E 004°16'0 0.0
2017-Aug-09 16:30N 52°06' E 004°16'0 0.0
2017-Aug-09 16:00N 52°06' E 004°16'0 0.0
2017-Aug-09 15:29N 52°06' E 004°16'0 0.0
2017-Aug-09 15:00N 52°06' E 004°16'0 0.0
2017-Aug-09 14:30N 52°06' E 004°16'0 0.0
2017-Aug-09 14:00N 52°06' E 004°16'0 0.0
2017-Aug-09 13:30N 52°06' E 004°16'0 0.0
2017-Aug-09 13:00N 52°06' E 004°16'0 0.0
2017-Aug-09 12:30N 52°06' E 004°16'0 0.0
2017-Aug-09 12:00N 52°06' E 004°16'0 0.0
2017-Aug-09 11:30N 52°06' E 004°16'0 0.0
2017-Aug-09 11:00N 52°06' E 004°16'0 0.0
2017-Aug-09 10:30N 52°06' E 004°16'0 0.0
2017-Aug-09 10:00N 52°06' E 004°16'0 0.0
2017-Aug-09 09:30N 52°06' E 004°16'0 0.0
2017-Aug-09 09:00N 52°06' E 004°16'0 0.0
2017-Aug-09 08:30N 52°06' E 004°16'0 0.0
2017-Aug-09 08:00N 52°06' E 004°16'0 0.0
2017-Aug-09 07:30N 52°06' E 004°16'0 0.0
2017-Aug-09 07:00N 52°06' E 004°16'0 0.0
2017-Aug-09 06:30N 52°06' E 004°16'0 0.0
2017-Aug-09 06:00N 52°06' E 004°16'0 0.0
2017-Aug-09 05:30N 52°06' E 004°16'0 0.0
2017-Aug-09 05:00N 52°06' E 004°16'0 0.0
2017-Aug-09 04:30N 52°06' E 004°16'0 0.0
2017-Aug-09 04:00N 52°06' E 004°16'0 0.0
2017-Aug-09 03:30N 52°06' E 004°16'0 0.0
2017-Aug-09 03:00N 52°06' E 004°16'0 0.0
2017-Aug-09 02:30N 52°06' E 004°16'0 0.0
2017-Aug-09 02:00N 52°06' E 004°16'0 0.0
2017-Aug-09 01:30N 52°06' E 004°16'0 0.0
2017-Aug-09 01:00N 52°06' E 004°16'0 0.0
2017-Aug-09 00:30N 52°06' E 004°16'0 0.0
2017-Aug-09 00:00N 52°06' E 004°16'0 0.0
2017-Aug-08 23:30N 52°06' E 004°16'0 0.0
2017-Aug-08 23:00N 52°06' E 004°16'0 0.0
2017-Aug-08 22:30N 52°06' E 004°16'0 0.0
2017-Aug-08 22:00N 52°06' E 004°16'0 0.0
2017-Aug-08 21:29N 52°06' E 004°16'0 0.0
2017-Aug-08 21:00N 52°06' E 004°16'0 0.0
2017-Aug-08 20:29N 52°06' E 004°16'0 0.0
2017-Aug-08 20:00N 52°06' E 004°16'0 0.0
2017-Aug-08 19:30N 52°06' E 004°16'0 0.0
2017-Aug-08 19:00N 52°06' E 004°16'0 0.0
2017-Aug-08 18:30N 52°06' E 004°16'0 0.0
2017-Aug-08 18:00N 52°06' E 004°16'0 0.0
2017-Aug-08 17:30N 52°06' E 004°16'0 0.0
2017-Aug-08 17:00N 52°06' E 004°16'0 0.0
2017-Aug-08 16:30N 52°06' E 004°16'0 0.0
2017-Aug-08 16:00N 52°06' E 004°16'0 0.0
2017-Aug-08 15:30N 52°06' E 004°16'0 0.0
2017-Aug-08 15:00N 52°06' E 004°16'0 0.0
2017-Aug-08 14:30N 52°06' E 004°16'0 0.0
2017-Aug-08 14:00N 52°06' E 004°16'0 0.0
2017-Aug-08 13:30N 52°06' E 004°16'0 0.0
2017-Aug-08 13:00N 52°06' E 004°16'0 0.0
2017-Aug-08 12:30N 52°06' E 004°16'0 0.0
2017-Aug-08 12:00N 52°06' E 004°16'0 0.0
2017-Aug-08 11:30N 52°06' E 004°16'0 0.0
2017-Aug-08 11:00N 52°06' E 004°16'0 0.0
2017-Aug-08 10:30N 52°06' E 004°16'0 0.0
2017-Aug-08 10:00N 52°06' E 004°16'0 0.0
2017-Aug-08 09:30N 52°06' E 004°16'0 0.0
2017-Aug-08 09:00N 52°06' E 004°16'0 0.0
2017-Aug-08 08:30N 52°06' E 004°16'0 0.0
2017-Aug-08 08:00N 52°06' E 004°16'0 0.0
2017-Aug-08 07:30N 52°06' E 004°16'0 0.0
2017-Aug-08 07:00N 52°06' E 004°16'0 0.0
2017-Aug-08 06:30N 52°06' E 004°16'0 0.0
2017-Aug-08 05:59N 52°06' E 004°16'0 0.0
2017-Aug-08 05:30N 52°06' E 004°16'0 0.0
2017-Aug-08 05:00N 52°06' E 004°16'0 0.0
2017-Aug-08 04:30N 52°06' E 004°16'0 0.0
2017-Aug-08 04:00N 52°06' E 004°16'0 0.0
2017-Aug-08 03:30N 52°06' E 004°16'0 0.0
2017-Aug-08 03:00N 52°06' E 004°16'0 0.0
2017-Aug-08 02:30N 52°06' E 004°16'0 0.0
2017-Aug-08 02:00N 52°06' E 004°16'0 0.0
2017-Aug-08 01:30N 52°06' E 004°16'0 0.0
2017-Aug-08 01:00N 52°06' E 004°16'0 0.0
2017-Aug-08 00:29N 52°06' E 004°16'0 0.0
2017-Aug-08 00:00N 52°06' E 004°16'0 0.0
2017-Aug-07 23:30N 52°06' E 004°16'0 0.0
2017-Aug-07 23:00N 52°06' E 004°16'0 0.0
2017-Aug-07 22:30N 52°06' E 004°16'0 0.0
2017-Aug-07 22:00N 52°06' E 004°16'0 0.0
2017-Aug-07 21:30N 52°06' E 004°16'0 0.0
2017-Aug-07 21:00N 52°06' E 004°16'0 0.0
2017-Aug-07 20:30N 52°06' E 004°16'0 0.0
2017-Aug-07 20:00N 52°06' E 004°16'0 0.0
2017-Aug-07 19:30N 52°06' E 004°16'0 0.0
2017-Aug-07 19:00N 52°06' E 004°16'0 0.0
2017-Aug-07 18:30N 52°06' E 004°16'0 0.0
2017-Aug-07 17:59N 52°06' E 004°16'0 0.0
2017-Aug-07 17:30N 52°06' E 004°16'0 0.0
2017-Aug-07 17:00N 52°06' E 004°16'0 0.0
2017-Aug-07 16:30N 52°06' E 004°16'0 0.0
2017-Aug-07 15:59N 52°06' E 004°16'0 0.0
2017-Aug-07 15:30N 52°06' E 004°16'0 0.0
2017-Aug-07 15:00N 52°06' E 004°16'0 0.0
2017-Aug-07 14:30N 52°06' E 004°16'0 0.0
2017-Aug-07 14:00N 52°06' E 004°16'0 0.0
2017-Aug-07 13:30N 52°06' E 004°16'0 0.0
2017-Aug-07 13:00N 52°06' E 004°16'0 0.0
2017-Aug-07 12:30N 52°06' E 004°16'0 0.0
2017-Aug-07 12:00N 52°06' E 004°16'0 0.0
2017-Aug-07 11:29N 52°06' E 004°16'0 0.0
2017-Aug-07 11:00N 52°06' E 004°16'0 0.0
2017-Aug-07 10:30N 52°06' E 004°16'0 0.0
2017-Aug-07 10:00N 52°06' E 004°16'0 0.0
2017-Aug-07 09:30N 52°06' E 004°16'0 0.0
2017-Aug-07 09:00N 52°06' E 004°16'0 0.0
2017-Aug-07 08:30N 52°06' E 004°16'0 0.0
2017-Aug-07 08:00N 52°06' E 004°16'0 0.0
2017-Aug-07 07:30N 52°06' E 004°16'0 0.0
2017-Aug-07 07:00N 52°06' E 004°16'0 0.0
2017-Aug-07 06:30N 52°06' E 004°16'0 0.0
2017-Aug-07 06:00N 52°06' E 004°16'0 0.0
2017-Aug-07 05:30N 52°06' E 004°16'0 0.0
2017-Aug-07 05:00N 52°06' E 004°16'0 0.0
2017-Aug-07 04:30N 52°06' E 004°16'0 0.0
2017-Aug-07 03:59N 52°06' E 004°16'0 0.0
2017-Aug-07 03:30N 52°06' E 004°16'0 0.0
2017-Aug-07 03:00N 52°06' E 004°16'0 0.0
2017-Aug-07 02:30N 52°06' E 004°16'0 0.0
2017-Aug-07 02:00N 52°06' E 004°16'0 0.0
2017-Aug-07 01:30N 52°06' E 004°16'  
Track history (hours):
 
Tides and Currents Weather Stations Pressure Air Temp Water Temp Dewpoint Dewpoint Depression Visibility Wind Speed Wind Dir Waves Ship Positions

Oceanographic research ship Zirfaea (Netherlands)

Detailed information on ship capabilities available from University of Delaware's Ocean Information Center.

Last reported at 2017-Aug-17 01:29 UTC. Time now 2017-Aug-17 01:44 UTC.
Position N 52°30' E 003°41'.

Length 63 m; draft 3.9 m.

Type: Law enforcement. MMSI: 246096000.

Date/timePositionNaut miles runAvg speedWind from/ knotsBaromVisibWave heightAir tempDewpointWater temp
2017-Aug-17 01:29N 52°30' E 003°41'4 9.4
2017-Aug-17 01:00N 52°28' E 003°48'5 9.5
2017-Aug-17 00:31N 52°26' E 003°54'5 9.6
2017-Aug-17 00:01N 52°24' E 004°01'5 9.4
2017-Aug-16 23:31N 52°21' E 004°08'4 7.9
2017-Aug-16 23:00N 52°19' E 004°14'4 7.5
2017-Aug-16 22:30N 52°17' E 004°19'3 6.6
2017-Aug-16 22:00N 52°16' E 004°24'4 7.0
2017-Aug-16 21:30N 52°20' E 004°24'5 9.1
2017-Aug-16 21:01N 52°24' E 004°24'4 8.7
2017-Aug-16 20:31N 52°29' E 004°26'4 8.8
2017-Aug-16 20:01N 52°33' E 004°28'5 9.7
2017-Aug-16 19:30N 52°38' E 004°29'510.3
2017-Aug-16 19:00N 52°43' E 004°31'510.5
2017-Aug-16 18:31N 52°48' E 004°34'3 5.7
2017-Aug-16 18:00N 52°50' E 004°37'4 8.8
2017-Aug-16 17:30N 52°54' E 004°33'510.4
2017-Aug-16 17:01N 52°59' E 004°31'510.3
2017-Aug-16 16:30N 53°03' E 004°35'610.7
2017-Aug-16 15:57N 53°09' E 004°39'510.7
2017-Aug-16 15:30N 53°13' E 004°42'510.4
2017-Aug-16 15:00N 53°17' E 004°48'510.1
2017-Aug-16 14:31N 53°21' E 004°53'5 9.5
2017-Aug-16 14:01N 53°24' E 004°59'4 8.9
2017-Aug-16 13:31N 53°26' E 005°06'4 8.5
2017-Aug-16 13:00N 53°28' E 005°12'4 8.6
2017-Aug-16 12:30N 53°29' E 005°19'6 8.6
2017-Aug-16 11:47N 53°31' E 005°29'2 8.6
2017-Aug-16 11:30N 53°32' E 005°33'9 0.7
2017-Aug-15 22:48N 53°33' E 005°18'411.3
2017-Aug-15 22:26N 53°32' E 005°12'510.9
2017-Aug-15 22:01N 53°28' E 005°07'3 6.6
2017-Aug-15 21:31N 53°30' E 005°02'66 2.7
2017-Aug-14 20:39N 53°38' E 003°12'210.6
2017-Aug-14 20:30N 53°37' E 003°11'2111.0
2017-Aug-14 18:37N 53°16' E 003°11'211.2
2017-Aug-14 18:23N 53°14' E 003°11'511.1
2017-Aug-14 17:58N 53°09' E 003°12'510.7
2017-Aug-14 17:31N 53°04' E 003°12'510.3
2017-Aug-14 17:00N 52°59' E 003°12'5 9.9
2017-Aug-14 16:30N 52°54' E 003°14'5 9.9
2017-Aug-14 16:01N 52°50' E 003°17'20 9.1
2017-Aug-14 13:49N 52°32' E 003°33'3 9.0
2017-Aug-14 13:30N 52°30' E 003°35'5 9.1
2017-Aug-14 13:00N 52°26' E 003°40'5 9.2
2017-Aug-14 12:25N 52°22' E 003°46'4 9.6
2017-Aug-14 12:00N 52°21' E 003°53'5 9.3
2017-Aug-14 11:31N 52°18' E 003°58'5 9.5
2017-Aug-14 11:00N 52°15' E 004°04'5 9.5
2017-Aug-14 10:30N 52°12' E 004°10'3 6.2
2017-Aug-14 10:01N 52°09' E 004°12'3 6.4
2017-Aug-14 09:30N 52°07' E 004°15'1 1.7
2017-Aug-14 09:00N 52°06' E 004°16'0 0.0
2017-Aug-14 08:30N 52°06' E 004°16'0 0.0
2017-Aug-14 08:00N 52°06' E 004°16'0 0.0
2017-Aug-14 07:30N 52°06' E 004°16'0 0.0
2017-Aug-14 07:00N 52°06' E 004°16'0 0.0
2017-Aug-14 06:30N 52°06' E 004°16'0 0.0
2017-Aug-14 06:00N 52°06' E 004°16'0 0.0
2017-Aug-14 05:30N 52°06' E 004°16'0 0.0
2017-Aug-14 05:00N 52°06' E 004°16'0 0.0
2017-Aug-14 04:30N 52°06' E 004°16'0 0.0
2017-Aug-14 04:00N 52°06' E 004°16'0 0.0
2017-Aug-14 03:30N 52°06' E 004°16'0 0.0
2017-Aug-14 03:00N 52°06' E 004°16'0 0.0
2017-Aug-14 02:30N 52°06' E 004°16'0 0.0
2017-Aug-14 02:00N 52°06' E 004°16'0 0.0
2017-Aug-14 01:30N 52°06' E 004°16'0 0.0
2017-Aug-14 00:59N 52°06' E 004°16'0 0.0
2017-Aug-14 00:30N 52°06' E 004°16'0 0.0
2017-Aug-14 00:00N 52°06' E 004°16'0 0.0
2017-Aug-13 23:30N 52°06' E 004°16'0 0.0
2017-Aug-13 23:00N 52°06' E 004°16'0 0.0
2017-Aug-13 22:30N 52°06' E 004°16'0 0.0
2017-Aug-13 22:00N 52°06' E 004°16'0 0.0
2017-Aug-13 21:29N 52°06' E 004°16'0 0.0
2017-Aug-13 21:00N 52°06' E 004°16'0 0.0
2017-Aug-13 20:30N 52°06' E 004°16'0 0.0
2017-Aug-13 20:00N 52°06' E 004°16'0 0.0
2017-Aug-13 19:30N 52°06' E 004°16'0 0.0
2017-Aug-13 19:00N 52°06' E 004°16'0 0.0
2017-Aug-13 18:30N 52°06' E 004°16'0 0.0
2017-Aug-13 18:00N 52°06' E 004°16'0 0.0
2017-Aug-13 17:29N 52°06' E 004°16'0 0.0
2017-Aug-13 17:00N 52°06' E 004°16'0 0.0
2017-Aug-13 16:30N 52°06' E 004°16'0 0.0
2017-Aug-13 16:00N 52°06' E 004°16'0 0.0
2017-Aug-13 15:30N 52°06' E 004°16'0 0.0
2017-Aug-13 15:00N 52°06' E 004°16'0 0.0
2017-Aug-13 14:30N 52°06' E 004°16'0 0.0
2017-Aug-13 14:00N 52°06' E 004°16'0 0.0
2017-Aug-13 13:30N 52°06' E 004°16'0 0.0
2017-Aug-13 13:00N 52°06' E 004°16'0 0.0
2017-Aug-13 12:30N 52°06' E 004°16'0 0.0
2017-Aug-13 12:00N 52°06' E 004°16'0 0.0
2017-Aug-13 11:30N 52°06' E 004°16'0 0.0
2017-Aug-13 11:00N 52°06' E 004°16'0 0.0
2017-Aug-13 10:30N 52°06' E 004°16'0 0.0
2017-Aug-13 10:00N 52°06' E 004°16'0 0.0
2017-Aug-13 09:30N 52°06' E 004°16'0 0.0
2017-Aug-13 09:00N 52°06' E 004°16'0 0.0
2017-Aug-13 08:30N 52°06' E 004°16'0 0.0
2017-Aug-13 08:00N 52°06' E 004°16'0 0.0
2017-Aug-13 07:30N 52°06' E 004°16'0 0.0
2017-Aug-13 07:00N 52°06' E 004°16'0 0.0
2017-Aug-13 06:30N 52°06' E 004°16'0 0.0
2017-Aug-13 06:00N 52°06' E 004°16'0 0.0
2017-Aug-13 05:30N 52°06' E 004°16'0 0.0
2017-Aug-13 05:00N 52°06' E 004°16'0 0.0
2017-Aug-13 04:30N 52°06' E 004°16'0 0.0
2017-Aug-13 04:00N 52°06' E 004°16'0 0.0
2017-Aug-13 03:30N 52°06' E 004°16'0 0.0
2017-Aug-13 03:00N 52°06' E 004°16'0 0.0
2017-Aug-13 02:30N 52°06' E 004°16'0 0.0
2017-Aug-13 02:00N 52°06' E 004°16'0 0.0
2017-Aug-13 01:30N 52°06' E 004°16'0 0.0
2017-Aug-13 01:00N 52°06' E 004°16'0 0.0
2017-Aug-13 00:30N 52°06' E 004°16'0 0.0
2017-Aug-12 23:59N 52°06' E 004°16'0 0.0
2017-Aug-12 23:30N 52°06' E 004°16'0 0.0
2017-Aug-12 23:00N 52°06' E 004°16'0 0.0
2017-Aug-12 22:30N 52°06' E 004°16'0 0.0
2017-Aug-12 22:00N 52°06' E 004°16'0 0.0
2017-Aug-12 21:30N 52°06' E 004°16'0 0.0
2017-Aug-12 21:00N 52°06' E 004°16'0 0.0
2017-Aug-12 20:30N 52°06' E 004°16'0 0.0
2017-Aug-12 20:00N 52°06' E 004°16'0 0.0
2017-Aug-12 19:30N 52°06' E 004°16'0 0.0
2017-Aug-12 19:00N 52°06' E 004°16'0 0.0
2017-Aug-12 18:30N 52°06' E 004°16'0 0.0
2017-Aug-12 18:00N 52°06' E 004°16'0 0.0
2017-Aug-12 17:29N 52°06' E 004°16'0 0.0
2017-Aug-12 17:00N 52°06' E 004°16'0 0.0
2017-Aug-12 16:30N 52°06' E 004°16'0 0.0
2017-Aug-12 16:00N 52°06' E 004°16'0 0.0
2017-Aug-12 15:30N 52°06' E 004°16'0 0.0
2017-Aug-12 15:00N 52°06' E 004°16'0 0.0
2017-Aug-12 14:30N 52°06' E 004°16'0 0.0
2017-Aug-12 14:00N 52°06' E 004°16'0 0.0
2017-Aug-12 13:30N 52°06' E 004°16'0 0.0
2017-Aug-12 13:00N 52°06' E 004°16'0 0.0
2017-Aug-12 12:30N 52°06' E 004°16'0 0.0
2017-Aug-12 12:00N 52°06' E 004°16'0 0.0
2017-Aug-12 11:30N 52°06' E 004°16'0 0.0
2017-Aug-12 11:00N 52°06' E 004°16'0 0.0
2017-Aug-12 10:30N 52°06' E 004°16'0 0.0
2017-Aug-12 10:00N 52°06' E 004°16'0 0.0
2017-Aug-12 09:30N 52°06' E 004°16'0 0.0
2017-Aug-12 09:00N 52°06' E 004°16'0 0.0
2017-Aug-12 08:30N 52°06' E 004°16'0 0.0
2017-Aug-12 08:00N 52°06' E 004°16'0 0.0
2017-Aug-12 07:30N 52°06' E 004°16'0 0.0
2017-Aug-12 07:00N 52°06' E 004°16'0 0.0
2017-Aug-12 06:30N 52°06' E 004°16'0 0.0
2017-Aug-12 06:00N 52°06' E 004°16'0 0.0
2017-Aug-12 05:30N 52°06' E 004°16'0 0.0
2017-Aug-12 05:00N 52°06' E 004°16'0 0.0
2017-Aug-12 04:30N 52°06' E 004°16'0 0.0
2017-Aug-12 03:59N 52°06' E 004°16'0 0.0
2017-Aug-12 03:30N 52°06' E 004°16'0 0.0
2017-Aug-12 03:00N 52°06' E 004°16'0 0.0
2017-Aug-12 02:30N 52°06' E 004°16'0 0.0
2017-Aug-12 02:00N 52°06' E 004°16'0 0.0
2017-Aug-12 01:30N 52°06' E 004°16'0 0.0
2017-Aug-12 01:00N 52°06' E 004°16'0 0.0
2017-Aug-12 00:30N 52°06' E 004°16'0 0.0
2017-Aug-12 00:00N 52°06' E 004°16'0 0.0
2017-Aug-11 23:30N 52°06' E 004°16'0 0.0
2017-Aug-11 23:00N 52°06' E 004°16'0 0.0
2017-Aug-11 22:30N 52°06' E 004°16'0 0.0
2017-Aug-11 22:00N 52°06' E 004°16'0 0.0
2017-Aug-11 21:30N 52°06' E 004°16'0 0.0
2017-Aug-11 21:00N 52°06' E 004°16'0 0.0
2017-Aug-11 20:30N 52°06' E 004°16'0 0.0
2017-Aug-11 20:00N 52°06' E 004°16'0 0.0
2017-Aug-11 19:30N 52°06' E 004°16'0 0.0
2017-Aug-11 19:00N 52°06' E 004°16'0 0.0
2017-Aug-11 18:30N 52°06' E 004°16'0 0.0
2017-Aug-11 18:00N 52°06' E 004°16'0 0.0
2017-Aug-11 17:30N 52°06' E 004°16'0 0.0
2017-Aug-11 17:00N 52°06' E 004°16'0 0.0
2017-Aug-11 16:30N 52°06' E 004°16'0 0.0
2017-Aug-11 16:00N 52°06' E 004°16'0 0.0
2017-Aug-11 15:30N 52°06' E 004°16'0 0.0
2017-Aug-11 15:00N 52°06' E 004°16'0 0.0
2017-Aug-11 14:00N 52°06' E 004°16'0 0.0
2017-Aug-11 13:30N 52°06' E 004°16'0 0.0
2017-Aug-11 13:00N 52°06' E 004°16'0 0.0
2017-Aug-11 12:30N 52°06' E 004°16'0 0.0
2017-Aug-11 12:00N 52°06' E 004°16'0 0.0
2017-Aug-11 11:30N 52°06' E 004°16'0 0.0
2017-Aug-11 11:00N 52°06' E 004°16'0 0.0
2017-Aug-11 10:30N 52°06' E 004°16'0 0.0
2017-Aug-11 10:00N 52°06' E 004°16'0 0.0
2017-Aug-11 09:30N 52°06' E 004°16'0 0.0
2017-Aug-11 09:00N 52°06' E 004°16'0 0.0
2017-Aug-11 08:30N 52°06' E 004°16'0 0.0
2017-Aug-11 08:00N 52°06' E 004°16'0 0.0
2017-Aug-11 07:30N 52°06' E 004°16'0 0.0
2017-Aug-11 07:00N 52°06' E 004°16'0 0.0
2017-Aug-11 06:30N 52°06' E 004°16'0 0.0
2017-Aug-11 05:59N 52°06' E 004°16'0 0.0
2017-Aug-11 05:30N 52°06' E 004°16'0 0.0
2017-Aug-11 05:00N 52°06' E 004°16'0 0.0
2017-Aug-11 04:30N 52°06' E 004°16'0 0.0
2017-Aug-11 04:00N 52°06' E 004°16'0 0.0
2017-Aug-11 03:30N 52°06' E 004°16'0 0.0
2017-Aug-11 03:00N 52°06' E 004°16'0 0.0
2017-Aug-11 02:30N 52°06' E 004°16'0 0.0
2017-Aug-11 02:00N 52°06' E 004°16'0 0.0
2017-Aug-11 01:30N 52°06' E 004°16'0 0.0
2017-Aug-11 01:00N 52°06' E 004°16'0 0.0
2017-Aug-11 00:30N 52°06' E 004°16'0 0.0
2017-Aug-11 00:00N 52°06' E 004°16'0 0.0
2017-Aug-10 23:30N 52°06' E 004°16'0 0.0
2017-Aug-10 23:00N 52°06' E 004°16'0 0.0
2017-Aug-10 22:30N 52°06' E 004°16'0 0.0
2017-Aug-10 22:00N 52°06' E 004°16'0 0.0
2017-Aug-10 21:30N 52°06' E 004°16'0 0.0
2017-Aug-10 21:00N 52°06' E 004°16'0 0.0
2017-Aug-10 20:30N 52°06' E 004°16'0 0.0
2017-Aug-10 20:00N 52°06' E 004°16'0 0.0
2017-Aug-10 19:30N 52°06' E 004°16'0 0.0
2017-Aug-10 19:00N 52°06' E 004°16'0 0.0
2017-Aug-10 18:30N 52°06' E 004°16'0 0.0
2017-Aug-10 18:00N 52°06' E 004°16'0 0.0
2017-Aug-10 17:30N 52°06' E 004°16'0 0.0
2017-Aug-10 17:00N 52°06' E 004°16'0 0.0
2017-Aug-10 16:30N 52°06' E 004°16'0 0.0
2017-Aug-10 16:00N 52°06' E 004°16'0 0.0
2017-Aug-10 15:30N 52°06' E 004°16'0 0.0
2017-Aug-10 15:00N 52°06' E 004°16'0 0.0
2017-Aug-10 14:30N 52°06' E 004°16'0 0.0
2017-Aug-10 13:58N 52°06' E 004°16'0 0.0
2017-Aug-10 13:30N 52°06' E 004°16'0 0.0
2017-Aug-10 13:00N 52°06' E 004°16'0 0.0
2017-Aug-10 12:30N 52°06' E 004°16'0 0.0
2017-Aug-10 12:00N 52°06' E 004°16'0 0.0
2017-Aug-10 11:29N 52°06' E 004°16'0 0.0
2017-Aug-10 11:00N 52°06' E 004°16'0 0.0
2017-Aug-10 10:30N 52°06' E 004°16'0 0.0
2017-Aug-10 10:00N 52°06' E 004°16'0 0.0
2017-Aug-10 09:30N 52°06' E 004°16'0 0.0
2017-Aug-10 09:00N 52°06' E 004°16'0 0.0
2017-Aug-10 08:30N 52°06' E 004°16'0 0.0
2017-Aug-10 08:00N 52°06' E 004°16'0 0.0
2017-Aug-10 07:30N 52°06' E 004°16'0 0.0
2017-Aug-10 07:00N 52°06' E 004°16'0 0.0
2017-Aug-10 06:30N 52°06' E 004°16'0 0.0
2017-Aug-10 06:00N 52°06' E 004°16'0 0.0
2017-Aug-10 05:30N 52°06' E 004°16'0 0.0
2017-Aug-10 05:00N 52°06' E 004°16'0 0.0
2017-Aug-10 04:30N 52°06' E 004°16'0 0.0
2017-Aug-10 04:00N 52°06' E 004°16'0 0.0
2017-Aug-10 03:30N 52°06' E 004°16'0 0.0
2017-Aug-10 03:00N 52°06' E 004°16'0 0.0
2017-Aug-10 02:30N 52°06' E 004°16'0 0.0
2017-Aug-10 02:00N 52°06' E 004°16'0 0.0
2017-Aug-10 01:30N 52°06' E 004°16'0 0.0
2017-Aug-10 01:00N 52°06' E 004°16'0 0.0
2017-Aug-10 00:30N 52°06' E 004°16'0 0.0
2017-Aug-10 00:00N 52°06' E 004°16'0 0.0
2017-Aug-09 23:30N 52°06' E 004°16'0 0.0
2017-Aug-09 23:00N 52°06' E 004°16'0 0.0
2017-Aug-09 22:30N 52°06' E 004°16'0 0.0
2017-Aug-09 22:00N 52°06' E 004°16'0 0.0
2017-Aug-09 21:29N 52°06' E 004°16'0 0.0
2017-Aug-09 21:00N 52°06' E 004°16'0 0.0
2017-Aug-09 20:30N 52°06' E 004°16'0 0.0
2017-Aug-09 20:00N 52°06' E 004°16'0 0.0
2017-Aug-09 19:30N 52°06' E 004°16'0 0.0
2017-Aug-09 19:00N 52°06' E 004°16'0 0.0
2017-Aug-09 18:30N 52°06' E 004°16'0 0.0
2017-Aug-09 18:00N 52°06' E 004°16'0 0.0
2017-Aug-09 17:30N 52°06' E 004°16'0 0.0
2017-Aug-09 17:00N 52°06' E 004°16'0 0.0
2017-Aug-09 16:30N 52°06' E 004°16'0 0.0
2017-Aug-09 16:00N 52°06' E 004°16'0 0.0
2017-Aug-09 15:29N 52°06' E 004°16'0 0.0
2017-Aug-09 15:00N 52°06' E 004°16'0 0.0
2017-Aug-09 14:30N 52°06' E 004°16'0 0.0
2017-Aug-09 14:00N 52°06' E 004°16'0 0.0
2017-Aug-09 13:30N 52°06' E 004°16'0 0.0
2017-Aug-09 13:00N 52°06' E 004°16'0 0.0
2017-Aug-09 12:30N 52°06' E 004°16'0 0.0
2017-Aug-09 12:00N 52°06' E 004°16'0 0.0
2017-Aug-09 11:30N 52°06' E 004°16'0 0.0
2017-Aug-09 11:00N 52°06' E 004°16'0 0.0
2017-Aug-09 10:30N 52°06' E 004°16'0 0.0
2017-Aug-09 10:00N 52°06' E 004°16'0 0.0
2017-Aug-09 09:30N 52°06' E 004°16'0 0.0
2017-Aug-09 09:00N 52°06' E 004°16'0 0.0
2017-Aug-09 08:30N 52°06' E 004°16'0 0.0
2017-Aug-09 08:00N 52°06' E 004°16'0 0.0
2017-Aug-09 07:30N 52°06' E 004°16'0 0.0
2017-Aug-09 07:00N 52°06' E 004°16'0 0.0
2017-Aug-09 06:30N 52°06' E 004°16'0 0.0
2017-Aug-09 06:00N 52°06' E 004°16'0 0.0
2017-Aug-09 05:30N 52°06' E 004°16'0 0.0
2017-Aug-09 05:00N 52°06' E 004°16'0 0.0
2017-Aug-09 04:30N 52°06' E 004°16'0 0.0
2017-Aug-09 04:00N 52°06' E 004°16'0 0.0
2017-Aug-09 03:30N 52°06' E 004°16'0 0.0
2017-Aug-09 03:00N 52°06' E 004°16'0 0.0
2017-Aug-09 02:30N 52°06' E 004°16'0 0.0
2017-Aug-09 02:00N 52°06' E 004°16'0 0.0
2017-Aug-09 01:30N 52°06' E 004°16'0 0.0
2017-Aug-09 01:00N 52°06' E 004°16'0 0.0
2017-Aug-09 00:30N 52°06' E 004°16'0 0.0
2017-Aug-09 00:00N 52°06' E 004°16'0 0.0
2017-Aug-08 23:30N 52°06' E 004°16'0 0.0
2017-Aug-08 23:00N 52°06' E 004°16'0 0.0
2017-Aug-08 22:30N 52°06' E 004°16'0 0.0
2017-Aug-08 22:00N 52°06' E 004°16'0 0.0
2017-Aug-08 21:29N 52°06' E 004°16'0 0.0
2017-Aug-08 21:00N 52°06' E 004°16'0 0.0
2017-Aug-08 20:29N 52°06' E 004°16'0 0.0
2017-Aug-08 20:00N 52°06' E 004°16'0 0.0
2017-Aug-08 19:30N 52°06' E 004°16'0 0.0
2017-Aug-08 19:00N 52°06' E 004°16'0 0.0
2017-Aug-08 18:30N 52°06' E 004°16'0 0.0
2017-Aug-08 18:00N 52°06' E 004°16'0 0.0
2017-Aug-08 17:30N 52°06' E 004°16'0 0.0
2017-Aug-08 17:00N 52°06' E 004°16'0 0.0
2017-Aug-08 16:30N 52°06' E 004°16'0 0.0
2017-Aug-08 16:00N 52°06' E 004°16'0 0.0
2017-Aug-08 15:30N 52°06' E 004°16'0 0.0
2017-Aug-08 15:00N 52°06' E 004°16'0 0.0
2017-Aug-08 14:30N 52°06' E 004°16'0 0.0
2017-Aug-08 14:00N 52°06' E 004°16'0 0.0
2017-Aug-08 13:30N 52°06' E 004°16'0 0.0
2017-Aug-08 13:00N 52°06' E 004°16'0 0.0
2017-Aug-08 12:30N 52°06' E 004°16'0 0.0
2017-Aug-08 12:00N 52°06' E 004°16'0 0.0
2017-Aug-08 11:30N 52°06' E 004°16'0 0.0
2017-Aug-08 11:00N 52°06' E 004°16'0 0.0
2017-Aug-08 10:30N 52°06' E 004°16'0 0.0
2017-Aug-08 10:00N 52°06' E 004°16'0 0.0
2017-Aug-08 09:30N 52°06' E 004°16'0 0.0
2017-Aug-08 09:00N 52°06' E 004°16'0 0.0
2017-Aug-08 08:30N 52°06' E 004°16'0 0.0
2017-Aug-08 08:00N 52°06' E 004°16'0 0.0
2017-Aug-08 07:30N 52°06' E 004°16'0 0.0
2017-Aug-08 07:00N 52°06' E 004°16'0 0.0
2017-Aug-08 06:30N 52°06' E 004°16'0 0.0
2017-Aug-08 05:59N 52°06' E 004°16'0 0.0
2017-Aug-08 05:30N 52°06' E 004°16'0 0.0
2017-Aug-08 05:00N 52°06' E 004°16'0 0.0
2017-Aug-08 04:30N 52°06' E 004°16'0 0.0
2017-Aug-08 04:00N 52°06' E 004°16'0 0.0
2017-Aug-08 03:30N 52°06' E 004°16'0 0.0
2017-Aug-08 03:00N 52°06' E 004°16'0 0.0
2017-Aug-08 02:30N 52°06' E 004°16'0 0.0
2017-Aug-08 02:00N 52°06' E 004°16'0 0.0
2017-Aug-08 01:30N 52°06' E 004°16'0 0.0
2017-Aug-08 01:00N 52°06' E 004°16'0 0.0
2017-Aug-08 00:29N 52°06' E 004°16'0 0.0
2017-Aug-08 00:00N 52°06' E 004°16'0 0.0
2017-Aug-07 23:30N 52°06' E 004°16'0 0.0
2017-Aug-07 23:00N 52°06' E 004°16'0 0.0
2017-Aug-07 22:30N 52°06' E 004°16'0 0.0
2017-Aug-07 22:00N 52°06' E 004°16'0 0.0
2017-Aug-07 21:30N 52°06' E 004°16'0 0.0
2017-Aug-07 21:00N 52°06' E 004°16'0 0.0
2017-Aug-07 20:30N 52°06' E 004°16'0 0.0
2017-Aug-07 20:00N 52°06' E 004°16'0 0.0
2017-Aug-07 19:30N 52°06' E 004°16'0 0.0
2017-Aug-07 19:00N 52°06' E 004°16'0 0.0
2017-Aug-07 18:30N 52°06' E 004°16'0 0.0
2017-Aug-07 17:59N 52°06' E 004°16'0 0.0
2017-Aug-07 17:30N 52°06' E 004°16'0 0.0
2017-Aug-07 17:00N 52°06' E 004°16'0 0.0
2017-Aug-07 16:30N 52°06' E 004°16'0 0.0
2017-Aug-07 15:59N 52°06' E 004°16'0 0.0
2017-Aug-07 15:30N 52°06' E 004°16'0 0.0
2017-Aug-07 15:00N 52°06' E 004°16'0 0.0
2017-Aug-07 14:30N 52°06' E 004°16'0 0.0
2017-Aug-07 14:00N 52°06' E 004°16'0 0.0
2017-Aug-07 13:30N 52°06' E 004°16'0 0.0
2017-Aug-07 13:00N 52°06' E 004°16'0 0.0
2017-Aug-07 12:30N 52°06' E 004°16'0 0.0
2017-Aug-07 12:00N 52°06' E 004°16'0 0.0
2017-Aug-07 11:29N 52°06' E 004°16'0 0.0
2017-Aug-07 11:00N 52°06' E 004°16'0 0.0
2017-Aug-07 10:30N 52°06' E 004°16'0 0.0
2017-Aug-07 10:00N 52°06' E 004°16'0 0.0
2017-Aug-07 09:30N 52°06' E 004°16'0 0.0
2017-Aug-07 09:00N 52°06' E 004°16'0 0.0
2017-Aug-07 08:30N 52°06' E 004°16'0 0.0
2017-Aug-07 08:00N 52°06' E 004°16'0 0.0
2017-Aug-07 07:30N 52°06' E 004°16'0 0.0
2017-Aug-07 07:00N 52°06' E 004°16'0 0.0
2017-Aug-07 06:30N 52°06' E 004°16'0 0.0
2017-Aug-07 06:00N 52°06' E 004°16'0 0.0
2017-Aug-07 05:30N 52°06' E 004°16'0 0.0
2017-Aug-07 05:00N 52°06' E 004°16'0 0.0
2017-Aug-07 04:30N 52°06' E 004°16'0 0.0
2017-Aug-07 03:59N 52°06' E 004°16'0 0.0
2017-Aug-07 03:30N 52°06' E 004°16'0 0.0
2017-Aug-07 03:00N 52°06' E 004°16'0 0.0
2017-Aug-07 02:30N 52°06' E 004°16'0 0.0
2017-Aug-07 02:00N 52°06' E 004°16'0 0.0
2017-Aug-07 01:30N 52°06' E 004°16'  

Dump ship's entire track history